createdAt,value
2018-09-03T00:02:21.184Z,67.47
2018-09-03T00:04:50.635Z,67.09
2018-09-03T00:07:20.037Z,67.09
2018-09-03T00:09:49.439Z,67.82
2018-09-03T00:12:18.855Z,67.58
2018-09-03T00:14:48.313Z,67.37
2018-09-03T00:17:17.768Z,67.37
2018-09-03T00:19:47.203Z,67.60
2018-09-03T00:22:16.617Z,67.59
2018-09-03T00:24:46.072Z,67.51
2018-09-03T00:27:15.648Z,67.35
2018-09-03T00:29:45.137Z,67.85
2018-09-03T00:32:19.644Z,67.40
2018-09-03T00:34:54.448Z,67.35
2018-09-03T00:37:35.932Z,67.97
2018-09-03T00:40:10.673Z,67.61
2018-09-03T00:42:45.353Z,68.13
2018-09-03T00:45:20.068Z,68.11
2018-09-03T00:47:49.467Z,67.55
2018-09-03T00:50:18.864Z,67.96
2018-09-03T00:52:48.533Z,67.79
2018-09-03T00:55:17.975Z,68.12
2018-09-03T00:57:47.403Z,67.93
2018-09-03T01:00:16.844Z,67.92
2018-09-03T01:02:46.276Z,68.46
2018-09-03T01:05:15.679Z,68.16
2018-09-03T01:07:45.116Z,68.09
2018-09-03T01:10:14.576Z,68.16
2018-09-03T01:12:44.014Z,68.10
2018-09-03T01:15:13.757Z,68.47
2018-09-03T01:17:43.464Z,68.21
2018-09-03T01:20:13.194Z,68.67
2018-09-03T01:22:42.965Z,68.20
2018-09-03T01:25:12.689Z,68.81
2018-09-03T01:27:42.405Z,68.21
2018-09-03T01:30:12.110Z,68.79
2018-09-03T01:32:41.815Z,68.90
2018-09-03T01:35:11.608Z,69.09
2018-09-03T01:37:41.281Z,68.79
2018-09-03T01:40:11.077Z,69.56
2018-09-03T01:42:40.955Z,71.12
2018-09-03T01:45:10.794Z,73.11
2018-09-03T01:47:40.575Z,75.23
2018-09-03T01:50:10.261Z,77.00
2018-09-03T01:52:39.961Z,78.44
2018-09-03T01:55:09.737Z,80.38
2018-09-03T01:57:39.482Z,80.91
2018-09-03T02:00:09.222Z,81.74
2018-09-03T02:02:38.990Z,82.85
2018-09-03T02:05:08.790Z,83.18
2018-09-03T02:07:38.521Z,84.31
2018-09-03T02:10:08.241Z,84.28
2018-09-03T02:12:37.909Z,84.17
2018-09-03T02:15:08.000Z,83.94
2018-09-03T02:17:37.747Z,84.79
2018-09-03T02:20:07.934Z,84.85
2018-09-03T02:22:37.645Z,84.60
2018-09-03T02:25:07.735Z,83.86
2018-09-03T02:27:37.451Z,83.84
2018-09-03T02:30:07.346Z,83.22
2018-09-03T02:32:37.059Z,82.70
2018-09-03T02:35:06.877Z,83.08
2018-09-03T02:37:36.598Z,83.04
2018-09-03T02:40:06.474Z,82.72
2018-09-03T02:42:36.328Z,82.66
2018-09-03T02:45:07.714Z,81.85
2018-09-03T02:47:37.413Z,82.14
2018-09-03T02:50:07.909Z,81.88
2018-09-03T02:52:37.873Z,81.33
2018-09-03T02:55:08.545Z,81.32
2018-09-03T02:57:38.275Z,81.05
2018-09-03T03:00:08.129Z,81.04
2018-09-03T03:02:37.829Z,81.57
2018-09-03T03:05:07.690Z,81.21
2018-09-03T03:07:37.424Z,81.15
2018-09-03T03:10:07.340Z,81.13
2018-09-03T03:12:37.043Z,80.97
2018-09-03T03:15:07.265Z,80.48
2018-09-03T03:17:37.051Z,81.21
2018-09-03T03:20:07.101Z,80.42
2018-09-03T03:22:36.853Z,80.31
2018-09-03T03:25:06.916Z,80.18
2018-09-03T03:27:36.603Z,80.13
2018-09-03T03:30:08.292Z,80.30
2018-09-03T03:32:38.046Z,80.58
2018-09-03T03:35:09.960Z,80.41
2018-09-03T03:37:41.537Z,80.76
2018-09-03T03:40:11.301Z,80.38
2018-09-03T03:42:41.911Z,80.46
2018-09-03T03:45:11.767Z,80.39
2018-09-03T03:47:41.866Z,79.82
2018-09-03T03:50:11.617Z,80.11
2018-09-03T03:52:41.410Z,80.47
2018-09-03T03:55:11.180Z,80.42
2018-09-03T03:57:40.937Z,80.92
2018-09-03T04:00:10.649Z,80.86
2018-09-03T04:02:40.375Z,80.49
2018-09-03T04:05:10.085Z,81.10
2018-09-03T04:07:39.811Z,81.24
2018-09-03T04:10:09.519Z,81.31
2018-09-03T04:12:41.415Z,81.07
2018-09-03T04:15:11.189Z,81.56
2018-09-03T04:17:40.933Z,81.52
2018-09-03T04:20:10.646Z,81.86
2018-09-03T04:22:40.371Z,81.80
2018-09-03T04:25:10.113Z,81.82
2018-09-03T04:27:39.826Z,80.81
2018-09-03T04:30:09.549Z,81.31
2018-09-03T04:32:39.243Z,81.21
2018-09-03T04:35:09.562Z,81.24
2018-09-03T04:37:39.393Z,80.89
2018-09-03T04:40:09.173Z,80.62
2018-09-03T04:42:38.950Z,80.67
2018-09-03T04:45:08.736Z,81.23
2018-09-03T04:47:38.677Z,80.64
2018-09-03T04:50:08.495Z,80.66
2018-09-03T04:52:38.229Z,80.67
2018-09-03T04:55:08.063Z,80.10
2018-09-03T04:57:40.690Z,79.75
2018-09-03T05:00:10.597Z,78.04
2018-09-03T05:02:40.373Z,76.39
2018-09-03T05:05:10.106Z,75.67
2018-09-03T05:07:39.846Z,74.81
2018-09-03T05:10:09.557Z,73.27
2018-09-03T05:12:39.933Z,72.68
2018-09-03T05:15:09.637Z,72.15
2018-09-03T05:17:39.392Z,71.12
2018-09-03T05:20:09.133Z,70.78
2018-09-03T05:22:38.877Z,69.35
2018-09-03T05:25:08.858Z,69.14
2018-09-03T05:27:38.581Z,67.09
2018-09-03T05:30:09.206Z,65.92
2018-09-03T05:32:39.366Z,64.44
2018-09-03T05:35:09.184Z,63.93
2018-09-03T05:37:39.146Z,63.54
2018-09-03T05:40:08.934Z,63.19
2018-09-03T05:42:38.819Z,62.35
2018-09-03T05:45:08.681Z,61.47
2018-09-03T05:47:38.521Z,61.28
2018-09-03T05:50:08.249Z,61.62
2018-09-03T05:52:38.273Z,61.46
2018-09-03T05:55:08.073Z,59.92
2018-09-03T05:57:37.816Z,59.28
2018-09-03T06:00:08.206Z,59.39
2018-09-03T06:02:37.982Z,59.25
2018-09-03T06:05:07.949Z,59.85
2018-09-03T06:07:39.113Z,59.21
2018-09-03T06:10:08.905Z,58.39
2018-09-03T06:12:39.623Z,57.75
2018-09-03T06:15:09.452Z,58.46
2018-09-03T06:17:39.142Z,57.22
2018-09-03T06:20:08.943Z,56.75
2018-09-03T06:22:38.666Z,56.46
2018-09-03T06:25:08.402Z,56.21
2018-09-03T06:27:38.086Z,56.64
2018-09-03T06:30:07.901Z,56.69
2018-09-03T06:32:37.568Z,56.49
2018-09-03T06:35:07.496Z,55.42
2018-09-03T06:37:37.386Z,54.37
2018-09-03T06:40:07.305Z,54.74
2018-09-03T06:42:37.101Z,53.92
2018-09-03T06:45:07.425Z,54.70
2018-09-03T06:47:37.187Z,54.91
2018-09-03T06:50:07.064Z,54.47
2018-09-03T06:52:36.815Z,53.87
2018-09-03T06:55:07.003Z,54.09
2018-09-03T06:57:36.705Z,53.95
2018-09-03T07:00:07.793Z,53.32
2018-09-03T07:02:37.536Z,53.79
2018-09-03T07:05:07.298Z,53.73
2018-09-03T07:07:37.174Z,53.30
2018-09-03T07:10:08.455Z,53.84
2018-09-03T07:12:38.505Z,54.89
2018-09-03T07:15:08.521Z,54.88
2018-09-03T07:17:38.349Z,55.83
2018-09-03T07:20:08.285Z,54.97
2018-09-03T07:22:38.029Z,55.08
2018-09-03T07:25:08.336Z,55.14
2018-09-03T07:27:38.395Z,54.02
2018-09-03T07:30:08.245Z,53.81
2018-09-03T07:32:38.081Z,53.16
2018-09-03T07:35:14.457Z,53.37
2018-09-03T07:37:44.156Z,51.94
2018-09-03T07:40:13.950Z,51.06
2018-09-03T07:42:43.749Z,50.74
2018-09-03T07:45:13.454Z,51.68
2018-09-03T07:47:43.225Z,52.28
2018-09-03T07:50:12.937Z,53.28
2018-09-03T07:52:42.632Z,52.80
2018-09-03T07:55:12.478Z,52.79
2018-09-03T07:57:42.197Z,53.58
2018-09-03T08:00:12.001Z,53.48
2018-09-03T08:02:41.712Z,52.50
2018-09-03T08:05:11.438Z,52.52
2018-09-03T08:07:41.118Z,50.95
2018-09-03T08:10:11.401Z,50.11
2018-09-03T08:12:41.562Z,50.47
2018-09-03T08:15:11.302Z,50.51
2018-09-03T08:17:41.037Z,50.27
2018-09-03T08:20:11.008Z,49.75
2018-09-03T08:22:40.652Z,48.44
2018-09-03T08:25:10.397Z,47.32
2018-09-03T08:27:40.380Z,46.41
2018-09-03T08:30:11.138Z,45.20
2018-09-03T08:32:40.780Z,44.14
2018-09-03T08:35:10.850Z,43.42
2018-09-03T08:37:40.535Z,42.91
2018-09-03T08:40:10.287Z,42.58
2018-09-03T08:42:40.105Z,40.73
2018-09-03T08:45:09.818Z,39.35
2018-09-03T08:47:39.553Z,39.66
2018-09-03T08:50:09.326Z,38.22
2018-09-03T08:52:39.029Z,37.87
2018-09-03T08:55:08.745Z,37.24
2018-09-03T08:57:38.458Z,35.87
2018-09-03T09:00:08.470Z,36.76
2018-09-03T09:02:38.267Z,37.27
2018-09-03T09:05:08.180Z,37.33
2018-09-03T09:07:38.045Z,36.82
2018-09-03T09:10:07.834Z,37.36
2018-09-03T09:12:37.679Z,36.61
2018-09-03T09:15:07.596Z,36.97
2018-09-03T09:17:37.341Z,35.78
2018-09-03T09:20:07.068Z,35.39
2018-09-03T09:22:36.840Z,34.85
2018-09-03T09:25:07.043Z,33.91
2018-09-03T09:27:36.855Z,33.51
2018-09-03T09:30:06.846Z,33.12
2018-09-03T09:32:36.602Z,31.68
2018-09-03T09:35:06.413Z,31.81
2018-09-03T09:37:36.084Z,31.75
2018-09-03T09:40:05.832Z,30.86
2018-09-03T09:42:35.785Z,31.44
2018-09-03T09:45:05.472Z,31.76
2018-09-03T09:47:35.160Z,31.37
2018-09-03T09:50:05.075Z,30.23
2018-09-03T09:52:35.081Z,30.16
2018-09-03T09:55:05.224Z,30.08
2018-09-03T09:57:35.152Z,30.08
2018-09-03T10:00:04.918Z,29.42
2018-09-03T10:02:34.627Z,29.18
2018-09-03T10:05:04.409Z,29.72
2018-09-03T10:07:34.126Z,29.41
2018-09-03T10:10:03.906Z,29.28
2018-09-03T10:12:34.144Z,29.22
2018-09-03T10:15:03.840Z,28.42
2018-09-03T10:17:33.545Z,28.43
2018-09-03T10:20:03.332Z,28.79
2018-09-03T10:22:33.021Z,29.09
2018-09-03T10:25:02.738Z,29.54
2018-09-03T10:27:32.469Z,30.04
2018-09-03T10:30:02.150Z,30.89
2018-09-03T10:32:32.350Z,31.02
2018-09-03T10:35:02.128Z,32.04
2018-09-03T10:37:31.811Z,31.93
2018-09-03T10:40:01.542Z,32.36
2018-09-03T10:42:31.332Z,33.37
2018-09-03T10:45:01.037Z,33.03
2018-09-03T10:47:30.815Z,33.71
2018-09-03T10:50:00.507Z,34.73
2018-09-03T10:52:30.275Z,34.35
2018-09-03T10:55:00.020Z,35.21
2018-09-03T10:57:29.945Z,34.73
2018-09-03T10:59:59.613Z,35.42
2018-09-03T11:02:29.342Z,35.37
2018-09-03T11:04:59.054Z,36.62
2018-09-03T11:07:28.793Z,37.22
2018-09-03T11:09:58.546Z,36.84
2018-09-03T11:12:28.305Z,37.23
2018-09-03T11:14:57.992Z,38.01
2018-09-03T11:17:27.674Z,39.34
2018-09-03T11:19:59.758Z,39.19
2018-09-03T11:22:29.626Z,40.67
2018-09-03T11:25:00.169Z,40.63
2018-09-03T11:27:29.900Z,41.42
2018-09-03T11:29:59.698Z,41.87
2018-09-03T11:32:29.438Z,42.02
2018-09-03T11:34:59.189Z,42.10
2018-09-03T11:37:28.886Z,42.63
2018-09-03T11:39:58.626Z,42.08
2018-09-03T11:42:28.351Z,42.02
2018-09-03T11:44:58.103Z,42.29
2018-09-03T11:47:27.816Z,42.05
2018-09-03T11:49:57.589Z,41.47
2018-09-03T11:52:27.338Z,42.23
2018-09-03T11:54:57.167Z,41.76
2018-09-03T11:57:27.047Z,41.35
2018-09-03T11:59:56.986Z,42.10
2018-09-03T12:02:26.721Z,41.52
2018-09-03T12:04:56.474Z,41.73
2018-09-03T12:07:26.224Z,41.00
2018-09-03T12:09:56.189Z,41.52
2018-09-03T12:12:25.873Z,40.92
2018-09-03T12:14:58.256Z,41.78
2018-09-03T12:17:27.942Z,41.58
2018-09-03T12:19:57.654Z,41.05
2018-09-03T12:22:27.560Z,40.08
2018-09-03T12:24:57.225Z,40.14
2018-09-03T12:27:27.129Z,40.62
2018-09-03T12:29:56.865Z,40.86
2018-09-03T12:32:26.562Z,40.79
2018-09-03T12:34:56.277Z,40.73
2018-09-03T12:37:26.229Z,40.83
2018-09-03T12:39:56.401Z,41.21
2018-09-03T12:42:26.125Z,41.22
2018-09-03T12:44:55.869Z,40.42
2018-09-03T12:47:25.614Z,40.86
2018-09-03T12:49:55.428Z,41.04
2018-09-03T12:52:25.141Z,40.70
2018-09-03T12:54:54.811Z,40.08
2018-09-03T12:57:24.562Z,40.23
2018-09-03T13:00:05.133Z,40.03
2018-09-03T13:02:24.189Z,40.25
2018-09-03T13:04:53.999Z,40.93
2018-09-03T13:07:23.721Z,40.57
2018-09-03T13:09:53.418Z,40.42
2018-09-03T13:12:23.157Z,40.15
2018-09-03T13:14:52.889Z,40.87
2018-09-03T13:17:22.577Z,41.01
2018-09-03T13:19:52.428Z,40.91
2018-09-03T13:22:22.210Z,40.37
2018-09-03T13:24:51.901Z,40.60
2018-09-03T13:27:21.653Z,39.54
2018-09-03T13:29:51.421Z,40.25
2018-09-03T13:32:21.131Z,39.68
2018-09-03T13:34:50.952Z,40.17
2018-09-03T13:37:20.914Z,39.85
2018-09-03T13:39:50.650Z,40.50
2018-09-03T13:42:20.406Z,39.74
2018-09-03T13:44:50.117Z,40.63
2018-09-03T13:47:19.838Z,40.01
2018-09-03T13:49:49.702Z,40.35
2018-09-03T13:52:19.413Z,40.74
2018-09-03T13:54:49.365Z,40.30
2018-09-03T13:57:19.065Z,40.32
2018-09-03T13:59:49.082Z,39.92
2018-09-03T14:02:18.891Z,39.78
2018-09-03T14:04:48.810Z,40.22
2018-09-03T14:07:18.620Z,39.99
2018-09-03T14:09:48.398Z,40.18
2018-09-03T14:12:18.162Z,40.16
2018-09-03T14:14:48.129Z,39.91
2018-09-03T14:17:18.088Z,40.22
2018-09-03T14:19:47.929Z,40.54
2018-09-03T14:22:17.699Z,40.14
2018-09-03T14:24:47.367Z,40.37
2018-09-03T14:27:17.189Z,39.80
2018-09-03T14:29:46.971Z,40.28
2018-09-03T14:32:16.718Z,40.22
2018-09-03T14:34:46.489Z,39.34
2018-09-03T14:37:16.233Z,39.20
2018-09-03T14:39:45.913Z,39.83
2018-09-03T14:42:15.714Z,39.29
2018-09-03T14:44:45.453Z,40.12
2018-09-03T14:47:15.194Z,40.28
2018-09-03T14:49:45.093Z,39.53
2018-09-03T14:52:14.952Z,40.32
2018-09-03T14:54:44.790Z,39.31
2018-09-03T14:57:14.684Z,39.51
2018-09-03T14:59:44.626Z,39.43
2018-09-03T15:02:14.654Z,39.39
2018-09-03T15:04:44.454Z,39.44
2018-09-03T15:07:14.233Z,39.32
2018-09-03T15:09:43.955Z,39.30
2018-09-03T15:12:13.826Z,39.44
2018-09-03T15:14:43.741Z,39.69
2018-09-03T15:17:13.450Z,39.10
2018-09-03T15:19:43.304Z,39.92
2018-09-03T15:22:13.090Z,39.67
2018-09-03T15:24:42.798Z,39.26
2018-09-03T15:27:12.556Z,38.93
2018-09-03T15:29:42.396Z,39.29
2018-09-03T15:32:12.189Z,38.79
2018-09-03T15:34:41.905Z,39.39
2018-09-03T15:37:11.670Z,38.82
2018-09-03T15:39:41.341Z,39.85
2018-09-03T15:42:11.306Z,38.88
2018-09-03T15:44:41.005Z,38.91
2018-09-03T15:47:10.738Z,39.37
2018-09-03T15:49:40.497Z,39.75
2018-09-03T15:52:10.270Z,40.37
2018-09-03T15:54:39.947Z,39.98
2018-09-03T15:57:09.694Z,40.48
2018-09-03T15:59:39.425Z,39.91
2018-09-03T16:02:09.153Z,39.95
2018-09-03T16:04:38.897Z,40.03
2018-09-03T16:07:08.679Z,39.45
2018-09-03T16:09:38.386Z,40.53
2018-09-03T16:12:08.482Z,40.15
2018-09-03T16:14:38.209Z,39.73
2018-09-03T16:17:07.909Z,39.71
2018-09-03T16:19:37.775Z,40.51
2018-09-03T16:22:07.994Z,40.15
2018-09-03T16:24:37.801Z,40.80
2018-09-03T16:27:07.716Z,40.44
2018-09-03T16:29:37.628Z,41.15
2018-09-03T16:32:07.562Z,41.65
2018-09-03T16:34:37.286Z,41.90
2018-09-03T16:37:07.133Z,41.53
2018-09-03T16:39:36.869Z,42.45
2018-09-03T16:42:08.679Z,41.50
2018-09-03T16:44:38.348Z,41.52
2018-09-03T16:47:08.565Z,41.72
2018-09-03T16:49:38.386Z,42.06
2018-09-03T16:52:08.464Z,42.97
2018-09-03T16:54:38.209Z,43.14
2018-09-03T16:57:08.022Z,42.63
2018-09-03T16:59:37.810Z,43.79
2018-09-03T17:02:08.013Z,43.85
2018-09-03T17:04:37.807Z,44.10
2018-09-03T17:07:07.889Z,43.98
2018-09-03T17:09:37.645Z,44.06
2018-09-03T17:12:07.730Z,44.69
2018-09-03T17:14:37.456Z,44.57
2018-09-03T17:17:08.031Z,44.40
2018-09-03T17:19:37.914Z,43.84
2018-09-03T17:22:07.772Z,43.68
2018-09-03T17:24:38.178Z,44.48
2018-09-03T17:27:08.127Z,43.94
2018-09-03T17:29:37.972Z,44.15
2018-09-03T17:32:07.802Z,45.15
2018-09-03T17:34:37.676Z,44.70
2018-09-03T17:37:07.468Z,45.59
2018-09-03T17:39:37.229Z,45.19
2018-09-03T17:42:07.005Z,45.26
2018-09-03T17:44:36.905Z,45.47
2018-09-03T17:47:07.036Z,46.20
2018-09-03T17:49:36.812Z,47.58
2018-09-03T17:52:06.836Z,49.07
2018-09-03T17:54:36.723Z,49.64
2018-09-03T17:57:06.450Z,50.78
2018-09-03T17:59:36.258Z,51.44
2018-09-03T18:02:06.115Z,52.33
2018-09-03T18:04:36.064Z,52.81
2018-09-03T18:07:05.880Z,52.31
2018-09-03T18:09:36.165Z,53.55
2018-09-03T18:12:06.300Z,53.72
2018-09-03T18:14:36.058Z,53.69
2018-09-03T18:17:06.065Z,54.99
2018-09-03T18:19:35.789Z,54.08
2018-09-03T18:22:05.510Z,54.48
2018-09-03T18:24:35.265Z,55.27
2018-09-03T18:27:05.199Z,55.56
2018-09-03T18:29:34.904Z,55.10
2018-09-03T18:32:05.255Z,55.91
2018-09-03T18:34:35.376Z,55.35
2018-09-03T18:37:05.392Z,56.19
2018-09-03T18:39:35.461Z,55.80
2018-09-03T18:42:05.270Z,56.74
2018-09-03T18:44:35.048Z,56.50
2018-09-03T18:47:04.859Z,56.33
2018-09-03T18:49:34.625Z,56.44
2018-09-03T18:52:04.471Z,57.39
2018-09-03T18:54:34.275Z,56.89
2018-09-03T18:57:04.078Z,56.77
2018-09-03T18:59:33.921Z,57.94
2018-09-03T19:02:03.840Z,57.16
2018-09-03T19:04:33.555Z,58.11
2018-09-03T19:07:03.297Z,58.13
2018-09-03T19:09:33.150Z,58.31
2018-09-03T19:12:03.238Z,57.76
2018-09-03T19:14:32.972Z,58.61
2018-09-03T19:17:02.734Z,58.78
2018-09-03T19:19:32.551Z,59.08
2018-09-03T19:22:02.525Z,59.41
2018-09-03T19:24:32.262Z,59.22
2018-09-03T19:27:02.208Z,59.10
2018-09-03T19:29:32.011Z,59.73
2018-09-03T19:32:02.029Z,59.82
2018-09-03T19:34:31.849Z,59.69
2018-09-03T19:37:02.013Z,59.78
2018-09-03T19:39:31.882Z,60.79
2018-09-03T19:42:01.592Z,60.40
2018-09-03T19:44:31.443Z,61.12
2018-09-03T19:47:01.514Z,60.72
2018-09-03T19:49:31.413Z,61.29
2018-09-03T19:52:01.257Z,61.48
2018-09-03T19:54:30.988Z,61.92
2018-09-03T19:57:00.686Z,61.75
2018-09-03T19:59:30.482Z,62.06
2018-09-03T20:02:00.295Z,62.32
2018-09-03T20:04:30.070Z,62.02
2018-09-03T20:06:59.758Z,61.99
2018-09-03T20:09:29.668Z,62.17
2018-09-03T20:11:59.494Z,62.73
2018-09-03T20:14:29.423Z,63.08
2018-09-03T20:16:59.249Z,63.19
2018-09-03T20:19:29.195Z,63.02
2018-09-03T20:21:58.926Z,62.82
2018-09-03T20:24:28.976Z,63.69
2018-09-03T20:26:58.673Z,63.45
2018-09-03T20:29:28.446Z,63.97
2018-09-03T20:31:58.376Z,63.80
2018-09-03T20:34:28.198Z,63.29
2018-09-03T20:36:57.952Z,63.65
2018-09-03T20:39:27.863Z,64.04
2018-09-03T20:41:57.618Z,64.48
2018-09-03T20:44:27.447Z,64.16
2018-09-03T20:46:57.683Z,64.01
2018-09-03T20:49:27.921Z,64.66
2018-09-03T20:51:57.753Z,64.41
2018-09-03T20:54:27.622Z,64.20
2018-09-03T20:56:57.350Z,65.09
2018-09-03T20:59:27.296Z,65.17
2018-09-03T21:01:57.039Z,64.62
2018-09-03T21:04:26.765Z,65.03
2018-09-03T21:06:56.581Z,65.44
2018-09-03T21:09:26.370Z,65.08
2018-09-03T21:11:56.101Z,64.99
2018-09-03T21:14:25.893Z,65.62
2018-09-03T21:16:55.729Z,65.97
2018-09-03T21:19:25.649Z,66.22
2018-09-03T21:21:55.540Z,65.93
2018-09-03T21:24:25.246Z,66.09
2018-09-03T21:26:54.961Z,66.80
2018-09-03T21:29:24.973Z,67.06
2018-09-03T21:31:55.394Z,66.98
2018-09-03T21:34:25.110Z,66.93
2018-09-03T21:36:54.831Z,67.35
2018-09-03T21:39:25.018Z,67.67
2018-09-03T21:41:54.737Z,68.53
2018-09-03T21:44:24.506Z,68.31
2018-09-03T21:46:54.642Z,68.49
2018-09-03T21:49:24.398Z,68.73
2018-09-03T21:51:54.189Z,69.90
2018-09-03T21:54:24.005Z,69.24
2018-09-03T21:56:53.825Z,69.75
2018-09-03T21:59:23.549Z,69.92
2018-09-03T22:01:54.194Z,70.33
2018-09-03T22:04:24.006Z,70.50
2018-09-03T22:06:53.910Z,70.95
2018-09-03T22:09:23.756Z,71.30
2018-09-03T22:11:53.626Z,71.29
2018-09-03T22:14:23.396Z,71.34
2018-09-03T22:16:53.341Z,71.87
2018-09-03T22:19:23.180Z,72.13
2018-09-03T22:21:53.029Z,72.73
2018-09-03T22:24:22.989Z,73.21
2018-09-03T22:26:52.961Z,73.30
2018-09-03T22:29:22.742Z,73.03
2018-09-03T22:31:52.485Z,73.38
2018-09-03T22:34:22.211Z,73.82
2018-09-03T22:36:51.947Z,73.68
2018-09-03T22:39:21.762Z,73.83
2018-09-03T22:41:51.545Z,74.83
2018-09-03T22:44:21.484Z,74.40
2018-09-03T22:46:51.249Z,75.00
2018-09-03T22:49:20.970Z,75.28
2018-09-03T22:51:50.725Z,74.98
2018-09-03T22:54:20.518Z,74.91
2018-09-03T22:56:50.372Z,75.00
2018-09-03T22:59:20.151Z,75.36
2018-09-03T23:01:49.911Z,75.96
2018-09-03T23:04:19.642Z,75.96
2018-09-03T23:06:49.443Z,76.04
2018-09-03T23:09:19.213Z,75.79
2018-09-03T23:11:48.937Z,76.32
2018-09-03T23:14:18.718Z,75.84
2018-09-03T23:16:48.562Z,76.15
2018-09-03T23:19:18.299Z,76.92
2018-09-03T23:21:48.196Z,76.76
2018-09-03T23:24:18.525Z,76.29
2018-09-03T23:26:48.246Z,76.54
2018-09-03T23:29:18.066Z,76.87
2018-09-03T23:31:47.797Z,76.55
2018-09-03T23:34:17.614Z,77.28
2018-09-03T23:36:47.534Z,77.64
2018-09-03T23:39:17.341Z,77.04
2018-09-03T23:41:47.033Z,77.14
2018-09-03T23:44:16.866Z,78.01
2018-09-03T23:46:46.616Z,78.15
2018-09-03T23:49:16.306Z,78.36
2018-09-03T23:51:46.155Z,78.28
2018-09-03T23:54:16.408Z,77.98
2018-09-03T23:56:46.239Z,78.42
2018-09-03T23:59:16.197Z,78.64
